Time;durP1;ratioP1;P1;durP2;ratioP2;P2;SDS_P1;SDS_P2;PMS_P1;PMS_P2;Temp;Humidity;BMP_temperature;BMP_pressure;BME280_temperature;BME280_humidity;BME280_pressure;Samples;Min_cycle;Max_cycle;Signal;HPM_P1;HPM_P2
2022/02/15 00:01:07;;;;;;;2.50;1.10;;;7.20;99.90;;;;;;5017985;28;20254;-79
2022/02/15 00:03:33;;;;;;;3.20;1.17;;;7.20;99.90;;;;;;4998815;28;20252;-77
2022/02/15 00:05:59;;;;;;;2.43;0.90;;;7.20;99.90;;;;;;5010294;28;20187;-76
2022/02/15 00:08:25;;;;;;;3.37;1.33;;;7.20;99.90;;;;;;4999227;28;20203;-78
2022/02/15 00:10:51;;;;;;;1.00;0.90;;;7.20;99.90;;;;;;5017493;28;20294;-77
2022/02/15 00:13:17;;;;;;;3.63;0.90;;;7.10;99.90;;;;;;5004873;28;20277;-77
2022/02/15 00:15:43;;;;;;;1.10;0.87;;;7.20;99.90;;;;;;5002855;28;20199;-77
2022/02/15 00:18:09;;;;;;;2.20;0.80;;;7.10;99.90;;;;;;5001817;28;20280;-77
2022/02/15 00:20:35;;;;;;;2.90;0.90;;;7.10;99.90;;;;;;5014372;28;20208;-79
2022/02/15 00:23:00;;;;;;;3.00;0.90;;;7.10;99.90;;;;;;5013475;28;20288;-76
2022/02/15 00:25:26;;;;;;;2.70;0.60;;;7.10;99.90;;;;;;5001519;28;20184;-79
2022/02/15 00:27:53;;;;;;;2.33;0.80;;;7.10;99.90;;;;;;5002927;28;20175;-77
2022/02/15 00:30:19;;;;;;;2.70;0.80;;;7.00;99.90;;;;;;4995107;28;20194;-78
2022/02/15 00:32:45;;;;;;;2.83;0.77;;;7.00;99.90;;;;;;4998732;28;20279;-75
2022/02/15 00:35:10;;;;;;;2.97;0.90;;;6.80;99.90;;;;;;5003662;28;20246;-81
2022/02/15 00:37:37;;;;;;;4.57;1.10;;;6.70;99.90;;;;;;4998669;28;20215;-76
2022/02/15 00:40:03;;;;;;;2.70;1.00;;;6.70;99.90;;;;;;4998580;28;20255;-78
2022/02/15 00:42:29;;;;;;;1.10;0.80;;;6.60;99.90;;;;;;5016079;28;20613;-80
2022/02/15 00:44:55;;;;;;;1.60;0.80;;;6.60;99.90;;;;;;5001224;28;20215;-80
2022/02/15 00:47:20;;;;;;;1.73;0.77;;;6.60;99.90;;;;;;4999598;28;20317;-79
2022/02/15 00:49:46;;;;;;;1.67;0.77;;;6.60;99.90;;;;;;5005845;28;20264;-78
2022/02/15 00:52:12;;;;;;;1.73;0.50;;;6.60;99.90;;;;;;5005436;28;20207;-78
2022/02/15 00:54:37;;;;;;;1.70;0.80;;;6.50;99.90;;;;;;5004382;28;20826;-81
2022/02/15 00:57:03;;;;;;;1.70;0.73;;;6.70;99.90;;;;;;5000730;28;20271;-78
2022/02/15 00:59:29;;;;;;;1.67;0.90;;;6.70;99.90;;;;;;5002602;28;20211;-78
2022/02/15 01:01:54;;;;;;;1.73;0.80;;;6.70;99.90;;;;;;5003580;28;20203;-79
2022/02/15 01:04:20;;;;;;;2.67;0.80;;;6.70;99.90;;;;;;5002312;28;20188;-79
2022/02/15 01:06:46;;;;;;;2.03;0.97;;;6.60;99.90;;;;;;5004301;28;20241;-76
2022/02/15 01:09:12;;;;;;;2.70;0.80;;;6.60;99.90;;;;;;5011371;28;20208;-77
2022/02/15 01:11:38;;;;;;;2.57;0.80;;;6.60;99.90;;;;;;5010971;28;20590;-78
2022/02/15 01:14:04;;;;;;;1.37;0.57;;;6.60;99.90;;;;;;5001335;28;20621;-79
2022/02/15 01:16:30;;;;;;;2.37;0.90;;;6.50;99.90;;;;;;5016364;28;20569;-79
2022/02/15 01:18:55;;;;;;;2.73;0.80;;;6.50;99.90;;;;;;4996407;28;20206;-78
2022/02/15 01:21:21;;;;;;;3.53;1.00;;;6.50;99.90;;;;;;5014942;28;20204;-76
2022/02/15 01:23:46;;;;;;;1.30;0.70;;;6.50;99.90;;;;;;4999769;28;20511;-77
2022/02/15 01:26:12;;;;;;;3.53;1.67;;;6.60;99.90;;;;;;5004382;28;20518;-78
2022/02/15 01:28:37;;;;;;;6.60;1.20;;;6.60;99.90;;;;;;4999712;28;20215;-79
2022/02/15 01:31:04;;;;;;;2.60;0.90;;;6.60;99.90;;;;;;5002055;28;20242;-78
2022/02/15 01:33:30;;;;;;;1.37;0.70;;;6.60;99.90;;;;;;4999104;28;20182;-76
2022/02/15 01:35:55;;;;;;;1.77;1.10;;;6.50;99.90;;;;;;5000354;28;20184;-79
2022/02/15 01:38:21;;;;;;;0.93;0.70;;;6.50;99.90;;;;;;4999458;28;20633;-79
2022/02/15 01:40:47;;;;;;;1.93;0.90;;;6.50;99.90;;;;;;4999635;28;20290;-79
2022/02/15 01:43:12;;;;;;;3.37;0.90;;;6.50;99.90;;;;;;5000301;28;20199;-78
2022/02/15 01:45:38;;;;;;;1.37;0.70;;;6.50;99.90;;;;;;5003470;28;20192;-77
2022/02/15 01:48:04;;;;;;;0.87;0.87;;;6.40;99.90;;;;;;5013996;28;20228;-76
2022/02/15 01:50:30;;;;;;;3.03;1.00;;;6.30;99.90;;;;;;5016549;28;20205;-79
2022/02/15 01:52:56;;;;;;;2.00;0.80;;;6.40;99.90;;;;;;5000323;28;20256;-79
2022/02/15 01:55:21;;;;;;;3.67;0.90;;;6.50;99.90;;;;;;4997690;28;20192;-79
2022/02/15 01:57:47;;;;;;;1.40;0.70;;;6.60;99.90;;;;;;5002875;28;20608;-77
2022/02/15 02:00:16;;;;;;;2.17;0.80;;;6.60;99.90;;;;;;5003156;28;20269;-78
2022/02/15 02:02:42;;;;;;;1.80;0.97;;;6.50;99.90;;;;;;5014902;28;20200;-78
2022/02/15 02:07:54;;;;;;;3.77;0.90;;;6.40;99.90;;;;;;4995866;28;20203;-78
2022/02/15 02:10:20;;;;;;;0.87;0.70;;;6.40;99.90;;;;;;4993734;28;20215;-79
2022/02/15 02:12:46;;;;;;;2.37;0.90;;;6.30;99.90;;;;;;5014526;28;20188;-81
2022/02/15 02:15:18;;;;;;;4.60;0.77;;;6.30;99.90;;;;;;4995492;28;20184;-79
2022/02/15 02:17:44;;;;;;;2.80;1.00;;;6.20;99.90;;;;;;4995912;28;20701;-77
2022/02/15 02:20:10;;;;;;;2.33;0.90;;;6.10;99.90;;;;;;4997298;28;20327;-78
2022/02/15 02:22:36;;;;;;;4.77;1.13;;;6.10;99.90;;;;;;4996113;28;20222;-76
2022/02/15 02:25:01;;;;;;;2.10;0.90;;;6.00;99.90;;;;;;4997111;28;20219;-81
2022/02/15 02:27:30;;;;;;;1.90;1.00;;;6.00;99.90;;;;;;5015158;28;20259;-79
2022/02/15 02:29:56;;;;;;;2.70;1.03;;;5.90;99.90;;;;;;5000128;28;20626;-81
2022/02/15 02:32:23;;;;;;;1.90;0.70;;;5.70;99.90;;;;;;5003536;28;20184;-81
2022/02/15 02:34:53;;;;;;;2.27;0.93;;;5.70;99.90;;;;;;5000534;28;20230;-79
2022/02/15 02:37:19;;;;;;;1.93;0.80;;;5.60;99.90;;;;;;5001670;28;20597;-77
2022/02/15 02:39:47;;;;;;;3.47;0.83;;;5.60;99.90;;;;;;5001420;28;20295;-80
2022/02/15 02:42:15;;;;;;;3.20;1.03;;;5.60;99.90;;;;;;5000144;28;20211;-81
2022/02/15 02:44:40;;;;;;;1.67;0.80;;;5.60;99.90;;;;;;5015740;28;20262;-77
2022/02/15 02:47:07;;;;;;;2.23;0.70;;;5.50;99.90;;;;;;5000009;28;20275;-76
2022/02/15 02:49:33;;;;;;;2.50;1.13;;;5.50;99.90;;;;;;4999943;28;20204;-77
2022/02/15 02:51:59;;;;;;;4.40;1.03;;;5.50;99.90;;;;;;5002520;28;20266;-79
2022/02/15 02:54:25;;;;;;;2.50;0.73;;;5.60;99.90;;;;;;5015527;28;20335;-77
2022/02/15 02:56:51;;;;;;;1.23;0.70;;;5.50;99.90;;;;;;5003364;28;20250;-77
2022/02/15 02:59:17;;;;;;;3.13;0.90;;;5.50;99.90;;;;;;5002862;28;20686;-77
2022/02/15 03:01:42;;;;;;;2.47;0.97;;;5.40;99.90;;;;;;5001527;28;20226;-78
2022/02/15 03:04:08;;;;;;;1.73;1.00;;;5.30;99.90;;;;;;5017959;28;20183;-77
2022/02/15 03:06:34;;;;;;;3.80;0.90;;;5.30;99.90;;;;;;5005249;28;21229;-80
2022/02/15 03:08:59;;;;;;;2.63;0.90;;;5.40;99.90;;;;;;5016979;28;20266;-78
2022/02/15 03:11:25;;;;;;;4.87;1.57;;;5.40;99.90;;;;;;5002860;28;20204;-79
2022/02/15 03:13:50;;;;;;;1.83;1.00;;;5.40;99.90;;;;;;5001973;28;20246;-76
2022/02/15 03:16:16;;;;;;;2.23;1.20;;;5.30;99.90;;;;;;5001970;28;20184;-80
2022/02/15 03:18:42;;;;;;;4.33;1.13;;;5.20;99.90;;;;;;5000525;28;21035;-81
2022/02/15 03:21:07;;;;;;;3.30;1.20;;;5.10;99.90;;;;;;5000698;28;20236;-82
2022/02/15 03:23:33;;;;;;;1.30;0.77;;;5.20;99.90;;;;;;4997874;28;20188;-80
2022/02/15 03:25:59;;;;;;;2.63;0.90;;;5.10;99.90;;;;;;5004228;28;20179;-78
2022/02/15 03:28:25;;;;;;;3.57;1.07;;;5.10;99.90;;;;;;4997289;28;20199;-76
2022/02/15 03:30:50;;;;;;;3.83;1.27;;;5.20;99.90;;;;;;4999337;28;20204;-78
2022/02/15 03:33:16;;;;;;;3.60;1.23;;;5.40;99.90;;;;;;5001815;28;20188;-78
2022/02/15 03:35:42;;;;;;;1.53;0.90;;;5.40;99.90;;;;;;5018792;28;20246;-79
2022/02/15 03:38:07;;;;;;;2.77;0.90;;;5.50;99.90;;;;;;4999658;28;20204;-79
2022/02/15 03:43:17;;;;;;;2.87;1.40;;;5.70;99.90;;;;;;4998976;28;20198;-79
2022/02/15 03:45:43;;;;;;;4.57;1.80;;;5.90;99.90;;;;;;4995446;28;20204;-77
2022/02/15 03:48:09;;;;;;;1.50;1.17;;;6.00;99.90;;;;;;4999781;28;20200;-79
2022/02/15 03:50:34;;;;;;;3.00;1.13;;;6.00;99.90;;;;;;5003097;28;20183;-80
2022/02/15 03:53:00;;;;;;;2.33;1.00;;;6.10;99.90;;;;;;5017621;28;20527;-81
2022/02/15 03:55:26;;;;;;;3.10;1.50;;;6.20;99.90;;;;;;4998253;28;20188;-77
2022/02/15 03:57:51;;;;;;;2.53;1.10;;;6.20;99.90;;;;;;5003511;28;20191;-80
2022/02/15 04:00:17;;;;;;;2.70;1.50;;;6.30;99.90;;;;;;5003119;28;20748;-78
2022/02/15 04:02:43;;;;;;;2.90;1.37;;;6.30;99.90;;;;;;5001976;28;20245;-78
2022/02/15 04:05:09;;;;;;;3.07;1.30;;;6.30;99.90;;;;;;4999358;28;20192;-79
2022/02/15 04:07:35;;;;;;;3.53;1.40;;;6.30;99.90;;;;;;5002856;28;20625;-80
2022/02/15 04:10:01;;;;;;;4.33;1.70;;;6.30;99.90;;;;;;5016601;28;20191;-79
2022/02/15 04:12:26;;;;;;;2.47;1.50;;;6.30;99.90;;;;;;4999795;28;20195;-78
2022/02/15 04:14:52;;;;;;;5.20;1.50;;;6.30;99.90;;;;;;5001112;28;20200;-80
2022/02/15 04:17:17;;;;;;;2.47;1.57;;;6.30;99.90;;;;;;4998435;28;20192;-80
2022/02/15 04:19:43;;;;;;;3.60;1.50;;;6.30;99.90;;;;;;5000118;28;20234;-78
2022/02/15 04:22:09;;;;;;;4.17;1.47;;;6.30;99.90;;;;;;4998025;28;20211;-79
2022/02/15 04:24:34;;;;;;;4.50;2.07;;;6.30;99.90;;;;;;5004702;28;20183;-81
2022/02/15 04:27:00;;;;;;;2.27;1.30;;;6.30;99.90;;;;;;4999750;28;20187;-77
2022/02/15 04:29:28;;;;;;;4.20;1.90;;;6.30;99.90;;;;;;4998454;28;20204;-80
2022/02/15 04:31:54;;;;;;;3.83;1.60;;;6.40;99.90;;;;;;5002021;28;20187;-76
2022/02/15 04:34:20;;;;;;;2.27;1.20;;;6.50;99.90;;;;;;4998341;28;20225;-76
2022/02/15 04:36:45;;;;;;;2.67;1.40;;;6.40;99.90;;;;;;5012525;28;20177;-79
2022/02/15 04:39:14;;;;;;;2.73;1.77;;;6.40;99.90;;;;;;5014601;28;20659;-76
2022/02/15 04:41:40;;;;;;;6.03;2.03;;;6.30;99.90;;;;;;5012519;28;20570;-76
2022/02/15 04:44:06;;;;;;;2.73;1.60;;;6.40;99.90;;;;;;5000091;28;20177;-79
2022/02/15 04:46:32;;;;;;;3.13;1.30;;;6.40;99.90;;;;;;4994736;28;20290;-82
2022/02/15 04:48:58;;;;;;;4.40;1.57;;;6.30;99.90;;;;;;4999106;28;20204;-77
2022/02/15 04:51:24;;;;;;;4.13;1.70;;;6.20;99.90;;;;;;4995314;28;20279;-79
2022/02/15 04:53:50;;;;;;;4.83;1.70;;;6.40;99.90;;;;;;4995876;28;20728;-78
2022/02/15 04:56:15;;;;;;;11.10;2.63;;;6.40;99.90;;;;;;5011749;28;20192;-82
2022/02/15 04:58:41;;;;;;;2.87;1.73;;;6.40;99.90;;;;;;5012765;28;20250;-80
2022/02/15 05:01:07;;;;;;;5.30;1.97;;;6.40;99.90;;;;;;5015825;28;20225;-80
2022/02/15 05:03:33;;;;;;;4.33;1.70;;;6.40;99.90;;;;;;5000164;28;20195;-79
2022/02/15 05:05:59;;;;;;;4.47;1.47;;;6.40;99.90;;;;;;4999719;28;20184;-79
2022/02/15 05:08:25;;;;;;;4.60;1.77;;;6.40;99.90;;;;;;4999366;28;20204;-80
2022/02/15 05:10:50;;;;;;;2.23;1.60;;;6.60;99.90;;;;;;5003498;28;20187;-80
2022/02/15 05:13:16;;;;;;;4.60;1.50;;;6.60;99.90;;;;;;5015728;28;20271;-79
2022/02/15 05:15:43;;;;;;;3.43;1.40;;;6.60;99.90;;;;;;4999297;28;20216;-77
2022/02/15 05:18:09;;;;;;;4.30;1.80;;;6.60;99.90;;;;;;5016104;28;20619;-78
2022/02/15 05:20:36;;;;;;;2.33;1.60;;;6.60;99.90;;;;;;5015299;28;20207;-79
2022/02/15 05:23:02;;;;;;;3.17;1.87;;;6.50;99.90;;;;;;5016440;28;20761;-78
2022/02/15 05:25:28;;;;;;;4.80;1.77;;;6.50;99.90;;;;;;4995637;28;20275;-79
2022/02/15 05:27:55;;;;;;;5.20;1.90;;;6.50;99.90;;;;;;4997076;28;20199;-78
2022/02/15 05:30:21;;;;;;;4.37;2.43;;;6.50;99.90;;;;;;4988546;28;20560;-80
2022/02/15 05:32:46;;;;;;;3.53;1.80;;;6.50;99.90;;;;;;4998630;28;20188;-79
2022/02/15 05:35:12;;;;;;;5.67;2.33;;;6.50;99.90;;;;;;5019006;28;20760;-81
2022/02/15 05:37:38;;;;;;;2.77;1.80;;;6.50;99.90;;;;;;4989360;28;20191;-80
2022/02/15 05:40:06;;;;;;;4.37;2.30;;;6.50;99.90;;;;;;4994763;28;20334;-81
2022/02/15 05:42:31;;;;;;;4.73;2.13;;;6.50;99.90;;;;;;4996116;28;20614;-79
2022/02/15 05:44:57;;;;;;;4.23;2.33;;;6.60;99.90;;;;;;5009048;28;20179;-81
2022/02/15 05:47:22;;;;;;;3.50;2.20;;;6.60;99.90;;;;;;4998221;28;20179;-78
2022/02/15 05:52:32;;;;;;;7.23;3.53;;;6.60;99.90;;;;;;4990175;28;20219;-74
2022/02/15 05:54:58;;;;;;;6.33;3.50;;;6.60;99.90;;;;;;4993372;28;20561;-79
2022/02/15 05:57:23;;;;;;;5.20;2.90;;;6.60;99.90;;;;;;4996026;28;20180;-80
2022/02/15 05:59:49;;;;;;;3.00;2.00;;;6.60;99.90;;;;;;4988094;28;20196;-76
2022/02/15 06:02:14;;;;;;;5.27;2.93;;;6.70;99.90;;;;;;5005497;28;20761;-77
2022/02/15 06:04:40;;;;;;;5.50;2.50;;;6.60;99.90;;;;;;4994006;28;20223;-79
2022/02/15 06:07:06;;;;;;;4.23;2.20;;;6.70;99.90;;;;;;4997557;28;20231;-79
2022/02/15 06:09:32;;;;;;;2.90;2.30;;;6.70;99.90;;;;;;5007605;28;20327;-76
2022/02/15 06:11:57;;;;;;;3.50;2.43;;;6.70;99.90;;;;;;4997396;28;20180;-76
2022/02/15 06:14:23;;;;;;;4.00;2.70;;;6.80;99.90;;;;;;5000167;28;20190;-78
2022/02/15 06:16:48;;;;;;;3.77;2.43;;;6.70;99.90;;;;;;5008514;28;20192;-79
2022/02/15 06:19:14;;;;;;;5.10;2.53;;;6.70;99.90;;;;;;4993669;28;20204;-78
2022/02/15 06:21:39;;;;;;;4.60;2.70;;;6.70;99.90;;;;;;4999028;28;20251;-75
2022/02/15 06:24:05;;;;;;;4.23;2.60;;;6.70;99.90;;;;;;5002370;28;20191;-79
2022/02/15 06:26:31;;;;;;;4.90;2.67;;;6.70;99.90;;;;;;5011268;28;20184;-80
2022/02/15 06:28:59;;;;;;;4.90;2.90;;;6.70;99.90;;;;;;4994795;28;20262;-78
2022/02/15 06:31:24;;;;;;;5.40;2.53;;;6.70;99.90;;;;;;4995888;28;20203;-78
2022/02/15 06:33:50;;;;;;;5.83;2.87;;;6.70;99.90;;;;;;5003560;28;20222;-78
2022/02/15 06:36:16;;;;;;;3.03;2.57;;;6.70;99.90;;;;;;5002570;28;20219;-79
2022/02/15 06:38:42;;;;;;;5.70;3.03;;;6.80;99.90;;;;;;5001746;28;20211;-79
2022/02/15 06:41:09;;;;;;;5.00;2.60;;;6.70;99.90;;;;;;5002262;28;20299;-79
2022/02/15 06:43:34;;;;;;;3.30;2.30;;;6.60;99.90;;;;;;4999658;28;20176;-76
2022/02/15 06:46:00;;;;;;;3.77;2.27;;;6.70;99.90;;;;;;5009947;28;20180;-81
2022/02/15 06:48:26;;;;;;;5.30;2.80;;;6.70;99.90;;;;;;5000146;28;20306;-79
2022/02/15 06:50:52;;;;;;;3.77;2.13;;;6.70;99.90;;;;;;5000006;28;20322;-79
2022/02/15 06:53:17;;;;;;;2.70;2.33;;;6.60;99.90;;;;;;5002139;28;20202;-78
2022/02/15 06:55:43;;;;;;;5.83;3.10;;;6.70;99.90;;;;;;5015301;28;20194;-76
2022/02/15 06:58:09;;;;;;;3.83;2.77;;;6.70;99.90;;;;;;5011784;28;20585;-79
2022/02/15 07:00:34;;;;;;;3.53;2.37;;;6.70;99.90;;;;;;5013001;28;20672;-78
2022/02/15 07:03:00;;;;;;;5.10;2.60;;;6.70;99.90;;;;;;4995576;28;20200;-77
2022/02/15 07:05:25;;;;;;;3.90;3.00;;;6.70;99.90;;;;;;4998544;28;20200;-76
2022/02/15 07:07:51;;;;;;;7.73;3.03;;;6.80;99.90;;;;;;5013406;28;20197;-80
2022/02/15 07:10:17;;;;;;;3.77;3.00;;;6.80;99.90;;;;;;5000017;28;20187;-78
2022/02/15 07:12:42;;;;;;;3.83;2.77;;;6.80;99.90;;;;;;5004177;28;20179;-76
2022/02/15 07:15:09;;;;;;;5.37;2.70;;;6.80;99.90;;;;;;5014556;28;20184;-78
2022/02/15 07:17:36;;;;;;;4.30;3.17;;;6.90;99.90;;;;;;5002530;28;20628;-76
2022/02/15 07:20:03;;;;;;;3.90;2.73;;;6.80;99.90;;;;;;4999401;28;20752;-79
2022/02/15 07:22:28;;;;;;;6.33;3.03;;;6.90;99.90;;;;;;5004310;28;20199;-78
2022/02/15 07:24:54;;;;;;;3.80;2.87;;;6.90;99.90;;;;;;5003120;28;20247;-76
2022/02/15 07:27:19;;;;;;;3.87;2.90;;;6.90;99.90;;;;;;4999606;28;20223;-78
2022/02/15 07:29:45;;;;;;;4.37;2.77;;;6.90;99.90;;;;;;4997948;28;20718;-74
2022/02/15 07:32:11;;;;;;;4.50;3.23;;;6.90;99.90;;;;;;5001814;28;20185;-78
2022/02/15 07:34:36;;;;;;;4.87;2.80;;;6.90;99.90;;;;;;5002138;28;20184;-77
2022/02/15 07:37:02;;;;;;;5.57;3.30;;;6.90;99.90;;;;;;4999881;28;20184;-77
2022/02/15 07:39:28;;;;;;;4.23;3.27;;;7.00;99.90;;;;;;5003326;28;20333;-78
2022/02/15 07:41:53;;;;;;;4.30;2.93;;;6.90;99.90;;;;;;5000395;28;20689;-80
2022/02/15 07:44:19;;;;;;;6.17;3.00;;;7.00;99.90;;;;;;4999581;28;21059;-76
2022/02/15 07:46:46;;;;;;;5.87;3.33;;;7.00;99.90;;;;;;5001259;28;20617;-80
2022/02/15 07:49:14;;;;;;;5.93;3.20;;;7.00;99.90;;;;;;4995809;28;20212;-77
2022/02/15 07:51:39;;;;;;;4.87;3.10;;;7.10;99.90;;;;;;5001051;28;20204;-80
2022/02/15 07:54:05;;;;;;;3.53;2.97;;;7.00;99.90;;;;;;5017244;28;20227;-78
2022/02/15 07:56:30;;;;;;;5.37;3.30;;;7.00;99.90;;;;;;5001386;28;20192;-80
2022/02/15 07:58:56;;;;;;;4.80;3.10;;;7.00;99.90;;;;;;4999633;28;20210;-80
2022/02/15 08:01:22;;;;;;;5.83;3.43;;;6.90;99.90;;;;;;4996531;28;20227;-78
2022/02/15 08:03:47;;;;;;;3.27;2.90;;;7.00;99.90;;;;;;4997489;28;20206;-79
2022/02/15 08:06:13;;;;;;;6.37;3.17;;;7.00;99.90;;;;;;4997493;28;20187;-79
2022/02/15 08:08:38;;;;;;;5.17;3.00;;;7.10;99.90;;;;;;4998744;28;20266;-80
2022/02/15 08:11:04;;;;;;;5.67;3.73;;;7.20;99.90;;;;;;4997851;28;20188;-79
2022/02/15 08:13:34;;;;;;;3.97;2.97;;;7.20;99.90;;;;;;4997544;28;20278;-81
2022/02/15 08:16:01;;;;;;;5.27;2.90;;;7.30;99.90;;;;;;4998214;28;20186;-81
2022/02/15 08:18:27;;;;;;;4.77;3.30;;;7.30;99.90;;;;;;4998255;28;20270;-80
2022/02/15 08:20:53;;;;;;;5.73;3.40;;;7.20;99.90;;;;;;4993714;28;20302;-80
2022/02/15 08:23:19;;;;;;;8.90;3.60;;;7.20;99.90;;;;;;4995591;28;20631;-80
2022/02/15 08:25:46;;;;;;;6.10;3.77;;;7.30;99.90;;;;;;5011638;28;20263;-80
2022/02/15 08:28:13;;;;;;;4.37;3.60;;;7.30;99.90;;;;;;5014060;28;21225;-80
2022/02/15 08:30:40;;;;;;;7.23;3.60;;;7.30;99.90;;;;;;4997770;28;20191;-81
2022/02/15 08:33:05;;;;;;;8.80;4.10;;;7.40;99.90;;;;;;4996235;28;20194;-80
2022/02/15 08:35:31;;;;;;;6.77;3.70;;;7.40;99.90;;;;;;4995401;28;20191;-80
2022/02/15 08:37:57;;;;;;;4.93;3.57;;;7.40;99.90;;;;;;4993016;28;20235;-80
2022/02/15 08:40:22;;;;;;;6.03;3.97;;;7.50;99.90;;;;;;4995147;28;20238;-79
2022/02/15 08:42:48;;;;;;;6.67;3.90;;;7.50;99.90;;;;;;4996222;28;20188;-80
2022/02/15 08:45:14;;;;;;;4.93;3.50;;;7.70;99.90;;;;;;4994090;28;20222;-79
2022/02/15 08:47:39;;;;;;;4.40;3.50;;;7.80;99.90;;;;;;4997750;28;20294;-80
2022/02/15 08:50:08;;;;;;;6.23;3.67;;;8.10;99.90;;;;;;4994352;28;20632;-81
2022/02/15 08:52:36;;;;;;;5.47;3.87;;;8.30;99.90;;;;;;4997494;28;20262;-80
2022/02/15 08:55:03;;;;;;;5.83;4.30;;;8.70;99.90;;;;;;4995815;28;20629;-80
2022/02/15 08:57:28;;;;;;;4.97;3.53;;;8.80;99.90;;;;;;4993481;28;20223;-80
2022/02/15 08:59:54;;;;;;;4.63;3.77;;;8.90;99.90;;;;;;4988102;28;20219;-79
2022/02/15 09:02:24;;;;;;;6.43;4.50;;;8.80;99.90;;;;;;4989707;28;20207;-80
2022/02/15 09:04:51;;;;;;;6.00;4.30;;;9.00;99.90;;;;;;5014123;28;20179;-79
2022/02/15 09:07:17;;;;;;;7.20;4.20;;;9.00;99.90;;;;;;4991336;28;20185;-80
2022/02/15 09:09:43;;;;;;;8.80;4.83;;;8.90;99.90;;;;;;4990531;28;20211;-80
2022/02/15 09:12:09;;;;;;;7.73;5.20;;;8.80;99.90;;;;;;4988182;28;20198;-80
2022/02/15 09:14:35;;;;;;;5.33;4.53;;;9.00;99.90;;;;;;4985833;28;20744;-80
2022/02/15 09:17:01;;;;;;;10.23;5.23;;;9.10;99.90;;;;;;4995226;28;20194;-80
2022/02/15 09:19:27;;;;;;;7.17;4.87;;;9.10;99.90;;;;;;4995714;28;20302;-80
2022/02/15 09:21:53;;;;;;;6.17;4.40;;;9.30;99.90;;;;;;4994068;28;21045;-79
2022/02/15 09:24:19;;;;;;;6.30;4.60;;;9.50;99.90;;;;;;4994888;28;20275;-78
2022/02/15 09:26:45;;;;;;;6.10;5.07;;;9.70;99.90;;;;;;5011696;28;20179;-78
2022/02/15 09:29:11;;;;;;;7.57;5.00;;;9.80;99.90;;;;;;5010868;28;20250;-79
2022/02/15 09:31:38;;;;;;;6.00;4.03;;;9.80;99.90;;;;;;5002478;28;20188;-79
2022/02/15 09:34:04;;;;;;;6.07;5.17;;;9.70;99.90;;;;;;4996340;28;20745;-80
2022/02/15 09:36:30;;;;;;;6.93;4.97;;;9.50;99.90;;;;;;4995656;28;21009;-80
2022/02/15 09:38:56;;;;;;;8.17;5.53;;;9.30;99.90;;;;;;4995818;28;20203;-80
2022/02/15 09:41:22;;;;;;;5.60;4.80;;;9.20;99.90;;;;;;5011580;28;20211;-79
2022/02/15 09:43:47;;;;;;;6.10;4.93;;;9.20;99.90;;;;;;4996671;28;20180;-78
2022/02/15 09:46:15;;;;;;;9.80;5.33;;;9.00;99.90;;;;;;4997209;28;20250;-79
2022/02/15 09:48:42;;;;;;;5.53;4.50;;;9.00;99.90;;;;;;5002706;28;20203;-78
2022/02/15 09:51:09;;;;;;;5.47;4.37;;;9.00;99.90;;;;;;4994022;28;20202;-78
2022/02/15 09:53:36;;;;;;;6.17;5.00;;;9.10;99.90;;;;;;4994025;28;20188;-78
2022/02/15 09:56:04;;;;;;;6.67;5.03;;;9.10;99.90;;;;;;4994481;28;20188;-80
2022/02/15 09:58:30;;;;;;;6.33;4.70;;;9.10;99.90;;;;;;4987081;28;20212;-79
2022/02/15 10:00:56;;;;;;;7.60;4.70;;;9.20;99.90;;;;;;4990057;28;20216;-80
2022/02/15 10:03:21;;;;;;;7.63;5.13;;;9.20;99.90;;;;;;4996609;28;21238;-80
2022/02/15 10:05:51;;;;;;;6.97;4.87;;;9.30;99.90;;;;;;4995088;28;20242;-80
2022/02/15 10:08:27;;;;;;;8.13;5.00;;;9.40;99.90;;;;;;5010643;28;20295;-80
2022/02/15 10:10:53;;;;;;;9.77;4.50;;;9.50;99.90;;;;;;4993270;28;20184;-78
2022/02/15 10:13:19;;;;;;;5.27;4.63;;;9.50;99.90;;;;;;4996181;28;20222;-77
2022/02/15 10:15:45;;;;;;;5.27;4.60;;;9.40;99.90;;;;;;4995853;28;20220;-79
2022/02/15 10:18:15;;;;;;;4.57;3.77;;;9.60;99.90;;;;;;4995261;28;20203;-80
2022/02/15 10:20:46;;;;;;;5.43;4.23;;;9.70;99.90;;;;;;4989374;28;20224;-79
2022/02/15 10:23:20;;;;;;;6.67;3.87;;;9.60;99.90;;;;;;4995856;28;20180;-79
2022/02/15 10:25:48;;;;;;;4.13;3.73;;;9.50;99.90;;;;;;4995888;28;20186;-79
2022/02/15 10:28:19;;;;;;;7.33;4.20;;;9.50;99.90;;;;;;5011000;28;20204;-78
2022/02/15 10:30:47;;;;;;;5.73;4.30;;;9.50;99.90;;;;;;5003220;28;20267;-79
2022/02/15 10:33:14;;;;;;;5.93;3.87;;;9.60;99.90;;;;;;4995987;28;20195;-78
2022/02/15 10:35:42;;;;;;;6.93;4.60;;;9.80;99.90;;;;;;4995244;28;20184;-77
2022/02/15 10:38:09;;;;;;;4.50;3.77;;;9.80;99.90;;;;;;4997875;28;20622;-76
2022/02/15 10:40:35;;;;;;;4.93;3.53;;;9.80;99.90;;;;;;5012899;28;20214;-79
2022/02/15 10:43:01;;;;;;;6.20;4.50;;;9.80;99.90;;;;;;4995938;28;20188;-81
2022/02/15 10:45:27;;;;;;;6.37;4.70;;;9.80;99.90;;;;;;4996337;28;20188;-78
2022/02/15 10:47:53;;;;;;;7.87;4.97;;;10.10;99.90;;;;;;4998293;28;20875;-77
2022/02/15 10:50:18;;;;;;;5.00;3.83;;;10.10;99.90;;;;;;4997516;28;20188;-78
2022/02/15 10:52:44;;;;;;;5.43;3.90;;;10.20;99.90;;;;;;5014268;28;20292;-80
2022/02/15 10:55:13;;;;;;;4.43;3.90;;;10.20;99.90;;;;;;5001800;28;20192;-79
2022/02/15 10:57:40;;;;;;;7.30;5.13;;;10.10;99.90;;;;;;4987754;28;20196;-79
2022/02/15 11:00:10;;;;;;;5.93;4.53;;;10.00;99.90;;;;;;4994061;28;20710;-78
2022/02/15 11:02:38;;;;;;;6.20;4.77;;;9.90;99.90;;;;;;4991510;28;20662;-79
2022/02/15 11:05:06;;;;;;;5.63;4.27;;;9.80;99.90;;;;;;4988501;28;20180;-79
2022/02/15 11:07:33;;;;;;;5.20;4.03;;;9.80;99.90;;;;;;4997892;28;20192;-80
2022/02/15 11:10:23;;;;;;;3.80;3.40;;;9.80;99.90;;;;;;4988602;28;20271;-79
2022/02/15 11:12:55;;;;;;;5.00;3.07;;;9.90;99.90;;;;;;5002079;28;20659;-79
2022/02/15 11:15:23;;;;;;;4.17;3.27;;;9.90;99.90;;;;;;4988821;28;20531;-78
2022/02/15 11:17:54;;;;;;;5.37;3.47;;;9.90;99.90;;;;;;5008882;28;20205;-77
2022/02/15 11:20:22;;;;;;;5.40;3.10;;;9.80;99.90;;;;;;4992247;28;20244;-79
2022/02/15 11:22:53;;;;;;;3.47;2.80;;;9.70;99.90;;;;;;4997965;28;20270;-79
2022/02/15 11:25:36;;;;;;;3.50;3.20;;;9.70;99.90;;;;;;5008993;28;20184;-78
2022/02/15 11:28:14;;;;;;;4.17;3.10;;;9.60;99.90;;;;;;4995449;28;20653;-80
2022/02/15 11:30:54;;;;;;;4.00;3.17;;;9.80;99.90;;;;;;4991946;28;20191;-77
2022/02/15 11:33:29;;;;;;;3.57;2.43;;;9.70;99.90;;;;;;4995400;28;20192;-80
2022/02/15 11:35:55;;;;;;;4.43;2.53;;;9.80;99.90;;;;;;4983842;28;20688;-77
2022/02/15 11:38:25;;;;;;;3.80;2.93;;;9.70;99.90;;;;;;4985814;28;20219;-79
2022/02/15 11:41:07;;;;;;;4.00;3.40;;;9.70;99.90;;;;;;4995044;28;20219;-79
2022/02/15 11:43:35;;;;;;;3.50;2.70;;;9.80;99.90;;;;;;4987335;28;20177;-80
2022/02/15 11:46:03;;;;;;;3.07;2.77;;;9.80;99.90;;;;;;4989416;28;20243;-79
2022/02/15 11:48:39;;;;;;;4.93;2.50;;;9.80;99.90;;;;;;4989419;28;20290;-79
2022/02/15 11:51:24;;;;;;;4.83;3.10;;;9.90;99.90;;;;;;4991513;28;20190;-79
2022/02/15 11:54:00;;;;;;;2.87;2.30;;;9.80;99.90;;;;;;4997777;28;20521;-78
2022/02/15 11:56:25;;;;;;;2.70;2.07;;;9.90;99.90;;;;;;4991481;28;20207;-80
2022/02/15 11:58:52;;;;;;;2.10;1.90;;;9.80;99.90;;;;;;4990483;28;20208;-80
2022/02/15 12:01:22;;;;;;;2.00;1.80;;;9.70;99.90;;;;;;4992003;28;20210;-78
2022/02/15 12:03:49;;;;;;;2.90;1.73;;;9.70;99.90;;;;;;5002835;28;20196;-81
2022/02/15 12:06:16;;;;;;;2.03;1.83;;;9.60;99.90;;;;;;4994630;28;20184;-81
2022/02/15 12:08:52;;;;;;;2.97;2.20;;;9.50;99.90;;;;;;4990180;28;20453;-79
2022/02/15 12:11:17;;;;;;;3.07;1.90;;;9.60;99.90;;;;;;5002656;28;20190;-79
2022/02/15 12:13:46;;;;;;;2.13;1.93;;;9.60;99.90;;;;;;4988104;28;21040;-79
2022/02/15 12:16:12;;;;;;;3.07;1.87;;;9.50;99.90;;;;;;4989568;28;20188;-80
2022/02/15 12:18:39;;;;;;;2.77;2.30;;;9.50;99.90;;;;;;4994423;28;20199;-79
2022/02/15 12:21:05;;;;;;;2.30;2.10;;;9.70;99.90;;;;;;5005639;28;20223;-78
2022/02/15 12:23:37;;;;;;;3.07;2.40;;;9.80;99.90;;;;;;4987387;28;20369;-78
2022/02/15 12:26:07;;;;;;;2.80;2.27;;;9.90;99.90;;;;;;4988123;28;20228;-79
2022/02/15 12:28:32;;;;;;;2.70;2.30;;;9.90;99.90;;;;;;5004910;28;20211;-81
2022/02/15 12:30:58;;;;;;;2.37;2.07;;;10.00;99.90;;;;;;4991172;28;20634;-81
2022/02/15 12:33:34;;;;;;;2.70;2.17;;;10.00;99.90;;;;;;5006958;28;20192;-79
2022/02/15 12:35:59;;;;;;;3.43;2.10;;;10.10;99.90;;;;;;4988328;28;20187;-78
2022/02/15 12:38:39;;;;;;;1.90;1.80;;;9.90;99.90;;;;;;5009585;28;20231;-79
2022/02/15 12:41:18;;;;;;;2.43;2.07;;;10.00;99.90;;;;;;4987429;28;20212;-78
2022/02/15 12:43:44;;;;;;;2.70;2.00;;;10.20;99.90;;;;;;5012579;28;20183;-79
2022/02/15 12:46:10;;;;;;;2.47;1.90;;;10.30;99.90;;;;;;5005460;28;20568;-78
2022/02/15 12:48:36;;;;;;;2.27;2.07;;;10.30;99.90;;;;;;4994646;28;20200;-78
2022/02/15 12:51:02;;;;;;;2.17;1.97;;;10.30;99.90;;;;;;5005362;28;20191;-80
2022/02/15 12:53:27;;;;;;;3.43;2.43;;;10.50;99.90;;;;;;5011132;28;20569;-78
2022/02/15 12:55:53;;;;;;;2.50;2.30;;;10.40;99.90;;;;;;4991864;28;20196;-81
2022/02/15 12:58:20;;;;;;;3.07;2.37;;;10.40;99.90;;;;;;5002827;28;20640;-81
2022/02/15 13:00:46;;;;;;;2.67;2.13;;;10.30;99.90;;;;;;4991094;28;20749;-80